sensor_id;sensor_type;location;lat;lon;timestamp;noise_LAeq;noise_LA_min;noise_LA_max;noise_LA01;noise_LA95
71020;Laerm;58902;51.436;5.980;2023-03-07T00:00:07;44.26;40.93;48.89;;
71020;Laerm;58902;51.436;5.980;2023-03-07T00:00:18;44.08;39.65;52.59;;
71020;Laerm;58902;51.436;5.980;2023-03-07T00:00:28;42.59;39.53;49.45;;
71020;Laerm;58902;51.436;5.980;2023-03-07T00:00:39;41.60;38.94;45.10;;
71020;Laerm;58902;51.436;5.980;2023-03-07T00:00:49;41.78;38.08;45.63;;
71020;Laerm;58902;51.436;5.980;2023-03-07T00:01:00;40.96;38.30;48.96;;
71020;Laerm;58902;51.436;5.980;2023-03-07T00:01:19;41.07;38.02;49.15;;
71020;Laerm;58902;51.436;5.980;2023-03-07T00:01:30;40.68;37.42;47.39;;
71020;Laerm;58902;51.436;5.980;2023-03-07T00:01:42;40.57;37.85;46.85;;
71020;Laerm;58902;51.436;5.980;2023-03-07T00:01:53;40.04;37.42;46.74;;
71020;Laerm;58902;51.436;5.980;2023-03-07T00:02:03;40.13;36.95;48.06;;
71020;Laerm;58902;51.436;5.980;2023-03-07T00:02:13;40.51;37.28;45.37;;
71020;Laerm;58902;51.436;5.980;2023-03-07T00:02:24;40.69;37.94;44.76;;
71020;Laerm;58902;51.436;5.980;2023-03-07T00:02:34;40.17;37.88;45.17;;
71020;Laerm;58902;51.436;5.980;2023-03-07T00:02:45;39.98;37.53;43.88;;
71020;Laerm;58902;51.436;5.980;2023-03-07T00:02:59;42.07;37.96;49.09;;
71020;Laerm;58902;51.436;5.980;2023-03-07T00:03:12;41.76;38.57;48.70;;
71020;Laerm;58902;51.436;5.980;2023-03-07T00:03:23;41.45;38.60;46.83;;
71020;Laerm;58902;51.436;5.980;2023-03-07T00:03:33;42.30;39.06;48.38;;
71020;Laerm;58902;51.436;5.980;2023-03-07T00:03:45;41.64;37.86;53.91;;
71020;Laerm;58902;51.436;5.980;2023-03-07T00:03:56;39.38;35.74;45.24;;
71020;Laerm;58902;51.436;5.980;2023-03-07T00:04:07;38.29;35.57;44.45;;
71020;Laerm;58902;51.436;5.980;2023-03-07T00:04:17;40.55;37.05;48.75;;
71020;Laerm;58902;51.436;5.980;2023-03-07T00:04:27;40.89;36.57;46.00;;
71020;Laerm;58902;51.436;5.980;2023-03-07T00:04:38;45.81;36.76;64.78;;
71020;Laerm;58902;51.436;5.980;2023-03-07T00:04:48;41.10;38.20;47.94;;
71020;Laerm;58902;51.436;5.980;2023-03-07T00:04:58;40.24;37.63;44.77;;
71020;Laerm;58902;51.436;5.980;2023-03-07T00:05:09;40.56;37.53;46.50;;
71020;Laerm;58902;51.436;5.980;2023-03-07T00:05:19;40.26;37.08;44.53;;
71020;Laerm;58902;51.436;5.980;2023-03-07T00:05:30;38.48;36.06;41.16;;
71020;Laerm;58902;51.436;5.980;2023-03-07T00:05:41;37.73;35.67;42.07;;
71020;Laerm;58902;51.436;5.980;2023-03-07T00:06:11;37.19;34.77;40.81;;
71020;Laerm;58902;51.436;5.980;2023-03-07T00:06:21;37.40;35.41;42.28;;
71020;Laerm;58902;51.436;5.980;2023-03-07T00:06:32;38.39;36.55;41.30;;
71020;Laerm;58902;51.436;5.980;2023-03-07T00:06:42;37.82;35.31;42.13;;
71020;Laerm;58902;51.436;5.980;2023-03-07T00:06:54;38.40;35.49;46.79;;
71020;Laerm;58902;51.436;5.980;2023-03-07T00:07:04;38.02;35.83;44.44;;
71020;Laerm;58902;51.436;5.980;2023-03-07T00:07:15;37.47;35.60;41.39;;
71020;Laerm;58902;51.436;5.980;2023-03-07T00:07:25;37.09;35.43;42.04;;
71020;Laerm;58902;51.436;5.980;2023-03-07T00:07:35;37.80;35.28;45.69;;
71020;Laerm;58902;51.436;5.980;2023-03-07T00:07:46;37.93;35.45;42.52;;
71020;Laerm;58902;51.436;5.980;2023-03-07T00:07:59;39.10;36.23;43.31;;
71020;Laerm;58902;51.436;5.980;2023-03-07T00:08:09;39.42;36.75;49.15;;
71020;Laerm;58902;51.436;5.980;2023-03-07T00:08:20;39.99;36.92;43.74;;
71020;Laerm;58902;51.436;5.980;2023-03-07T00:08:30;39.56;36.92;43.15;;
71020;Laerm;58902;51.436;5.980;2023-03-07T00:08:41;41.82;37.43;55.53;;
71020;Laerm;58902;51.436;5.980;2023-03-07T00:08:52;38.23;35.43;44.63;;
71020;Laerm;58902;51.436;5.980;2023-03-07T00:09:03;38.00;35.37;44.85;;
71020;Laerm;58902;51.436;5.980;2023-03-07T00:09:13;38.32;36.05;44.03;;
71020;Laerm;58902;51.436;5.980;2023-03-07T00:09:23;46.09;37.23;54.96;;
71020;Laerm;58902;51.436;5.980;2023-03-07T00:09:34;42.00;37.25;49.04;;
71020;Laerm;58902;51.436;5.980;2023-03-07T00:09:44;41.05;37.50;45.42;;
71020;Laerm;58902;51.436;5.980;2023-03-07T00:09:55;43.50;40.70;50.19;;
71020;Laerm;58902;51.436;5.980;2023-03-07T00:10:05;47.16;41.03;54.75;;
71020;Laerm;58902;51.436;5.980;2023-03-07T00:10:16;75.52;50.80;81.01;;
71020;Laerm;58902;51.436;5.980;2023-03-07T00:10:26;47.76;43.96;52.15;;
71020;Laerm;58902;51.436;5.980;2023-03-07T00:10:37;45.41;42.33;49.81;;
71020;Laerm;58902;51.436;5.980;2023-03-07T00:10:47;44.61;39.65;49.14;;
71020;Laerm;58902;51.436;5.980;2023-03-07T00:11:04;43.12;39.57;49.61;;
71020;Laerm;58902;51.436;5.980;2023-03-07T00:11:15;43.32;39.65;50.07;;
71020;Laerm;58902;51.436;5.980;2023-03-07T00:11:25;45.14;40.29;54.59;;
71020;Laerm;58902;51.436;5.980;2023-03-07T00:11:36;45.31;41.66;50.30;;
71020;Laerm;58902;51.436;5.980;2023-03-07T00:11:46;46.26;42.49;51.51;;
71020;Laerm;58902;51.436;5.980;2023-03-07T00:11:58;47.52;43.71;54.27;;
71020;Laerm;58902;51.436;5.980;2023-03-07T00:12:09;47.57;43.62;56.18;;
71020;Laerm;58902;51.436;5.980;2023-03-07T00:12:20;47.99;43.06;53.78;;
71020;Laerm;58902;51.436;5.980;2023-03-07T00:12:31;49.86;45.78;57.81;;
71020;Laerm;58902;51.436;5.980;2023-03-07T00:12:41;51.04;47.18;57.08;;
71020;Laerm;58902;51.436;5.980;2023-03-07T00:12:52;51.45;47.23;58.75;;
71020;Laerm;58902;51.436;5.980;2023-03-07T00:13:02;52.25;48.24;57.67;;
71020;Laerm;58902;51.436;5.980;2023-03-07T00:13:13;51.44;48.09;56.17;;
71020;Laerm;58902;51.436;5.980;2023-03-07T00:13:23;50.65;45.72;56.33;;
71020;Laerm;58902;51.436;5.980;2023-03-07T00:13:35;52.91;48.38;59.31;;
71020;Laerm;58902;51.436;5.980;2023-03-07T00:13:46;51.59;46.60;56.75;;
71020;Laerm;58902;51.436;5.980;2023-03-07T00:13:56;50.10;46.12;56.16;;
71020;Laerm;58902;51.436;5.980;2023-03-07T00:14:07;59.16;46.78;75.54;;
71020;Laerm;58902;51.436;5.980;2023-03-07T00:14:17;74.71;72.41;78.47;;
71020;Laerm;58902;51.436;5.980;2023-03-07T00:14:28;72.65;51.65;77.70;;
71020;Laerm;58902;51.436;5.980;2023-03-07T00:14:38;50.22;44.87;56.49;;
71020;Laerm;58902;51.436;5.980;2023-03-07T00:14:49;46.94;43.96;52.49;;
71020;Laerm;58902;51.436;5.980;2023-03-07T00:14:59;47.35;41.90;52.41;;
71020;Laerm;58902;51.436;5.980;2023-03-07T00:15:10;46.18;41.95;51.66;;
71020;Laerm;58902;51.436;5.980;2023-03-07T00:15:21;45.79;42.71;50.66;;
71020;Laerm;58902;51.436;5.980;2023-03-07T00:15:31;44.30;41.58;49.08;;
71020;Laerm;58902;51.436;5.980;2023-03-07T00:15:42;44.21;41.90;49.28;;
71020;Laerm;58902;51.436;5.980;2023-03-07T00:15:52;43.59;40.46;48.44;;
71020;Laerm;58902;51.436;5.980;2023-03-07T00:16:03;43.73;39.94;47.90;;
71020;Laerm;58902;51.436;5.980;2023-03-07T00:16:15;44.41;40.70;47.75;;
71020;Laerm;58902;51.436;5.980;2023-03-07T00:16:26;42.05;39.22;48.12;;
71020;Laerm;58902;51.436;5.980;2023-03-07T00:16:36;42.19;37.96;46.02;;
71020;Laerm;58902;51.436;5.980;2023-03-07T00:16:48;41.73;38.19;47.62;;
71020;Laerm;58902;51.436;5.980;2023-03-07T00:16:59;41.26;37.94;47.61;;
71020;Laerm;58902;51.436;5.980;2023-03-07T00:17:09;39.91;37.07;45.43;;
71020;Laerm;58902;51.436;5.980;2023-03-07T00:17:19;39.91;37.43;45.05;;
71020;Laerm;58902;51.436;5.980;2023-03-07T00:17:30;40.37;37.42;46.01;;
71020;Laerm;58902;51.436;5.980;2023-03-07T00:17:40;39.25;35.72;45.49;;
71020;Laerm;58902;51.436;5.980;2023-03-07T00:17:50;39.61;37.19;46.05;;
71020;Laerm;58902;51.436;5.980;2023-03-07T00:18:01;40.91;38.19;48.43;;
71020;Laerm;58902;51.436;5.980;2023-03-07T00:18:12;40.82;37.45;47.60;;
71020;Laerm;58902;51.436;5.980;2023-03-07T00:18:22;40.96;38.39;45.62;;
71020;Laerm;58902;51.436;5.980;2023-03-07T00:18:33;41.85;38.04;46.42;;
71020;Laerm;58902;51.436;5.980;2023-03-07T00:18:43;42.94;40.19;46.37;;
71020;Laerm;58902;51.436;5.980;2023-03-07T00:18:54;41.60;39.24;44.41;;
71020;Laerm;58902;51.436;5.980;2023-03-07T00:19:04;42.82;40.24;46.71;;
71020;Laerm;58902;51.436;5.980;2023-03-07T00:19:17;43.54;40.96;49.27;;
71020;Laerm;58902;51.436;5.980;2023-03-07T00:19:27;43.53;40.15;49.51;;
71020;Laerm;58902;51.436;5.980;2023-03-07T00:19:40;43.07;39.68;49.83;;
71020;Laerm;58902;51.436;5.980;2023-03-07T00:19:50;43.62;40.77;49.25;;
71020;Laerm;58902;51.436;5.980;2023-03-07T00:20:00;44.85;39.74;50.72;;
71020;Laerm;58902;51.436;5.980;2023-03-07T00:20:11;45.87;42.23;51.52;;
71020;Laerm;58902;51.436;5.980;2023-03-07T00:20:23;48.05;41.91;54.73;;
71020;Laerm;58902;51.436;5.980;2023-03-07T00:20:34;50.31;46.51;54.26;;
71020;Laerm;58902;51.436;5.980;2023-03-07T00:20:44;49.87;46.87;53.51;;
71020;Laerm;58902;51.436;5.980;2023-03-07T00:20:55;51.44;47.82;57.47;;
71020;Laerm;58902;51.436;5.980;2023-03-07T00:21:08;51.96;49.04;55.29;;
71020;Laerm;58902;51.436;5.980;2023-03-07T00:21:19;52.61;48.46;57.06;;
71020;Laerm;58902;51.436;5.980;2023-03-07T00:21:31;52.59;49.44;57.14;;
71020;Laerm;58902;51.436;5.980;2023-03-07T00:21:42;52.66;47.91;57.42;;
71020;Laerm;58902;51.436;5.980;2023-03-07T00:21:52;51.87;48.29;55.62;;
71020;Laerm;58902;51.436;5.980;2023-03-07T00:22:02;51.14;48.58;54.85;;
71020;Laerm;58902;51.436;5.980;2023-03-07T00:22:13;52.57;49.26;57.39;;
71020;Laerm;58902;51.436;5.980;2023-03-07T00:22:23;52.23;48.97;56.81;;
71020;Laerm;58902;51.436;5.980;2023-03-07T00:22:34;51.91;49.15;55.98;;
71020;Laerm;58902;51.436;5.980;2023-03-07T00:22:44;53.06;50.55;56.60;;
71020;Laerm;58902;51.436;5.980;2023-03-07T00:22:55;52.42;49.16;55.73;;
71020;Laerm;58902;51.436;5.980;2023-03-07T00:23:06;52.23;48.65;56.49;;
71020;Laerm;58902;51.436;5.980;2023-03-07T00:23:16;50.20;46.34;55.45;;
71020;Laerm;58902;51.436;5.980;2023-03-07T00:23:27;48.39;44.75;52.16;;
71020;Laerm;58902;51.436;5.980;2023-03-07T00:23:38;47.66;43.11;51.97;;
71020;Laerm;58902;51.436;5.980;2023-03-07T00:23:50;47.03;44.06;53.98;;
71020;Laerm;58902;51.436;5.980;2023-03-07T00:24:01;46.66;41.36;51.41;;
71020;Laerm;58902;51.436;5.980;2023-03-07T00:24:11;47.44;43.91;52.95;;
71020;Laerm;58902;51.436;5.980;2023-03-07T00:24:22;48.66;45.16;53.39;;
71020;Laerm;58902;51.436;5.980;2023-03-07T00:24:32;49.11;44.52;54.05;;
71020;Laerm;58902;51.436;5.980;2023-03-07T00:24:42;48.25;45.02;52.61;;
71020;Laerm;58902;51.436;5.980;2023-03-07T00:24:52;48.77;45.51;51.75;;
71020;Laerm;58902;51.436;5.980;2023-03-07T00:25:03;49.64;44.81;53.72;;
71020;Laerm;58902;51.436;5.980;2023-03-07T00:25:14;47.70;45.30;50.61;;
71020;Laerm;58902;51.436;5.980;2023-03-07T00:25:24;47.66;44.66;52.37;;
71020;Laerm;58902;51.436;5.980;2023-03-07T00:25:34;49.66;47.11;52.33;;
71020;Laerm;58902;51.436;5.980;2023-03-07T00:25:45;47.57;43.81;51.83;;
71020;Laerm;58902;51.436;5.980;2023-03-07T00:26:05;48.50;43.50;53.83;;
71020;Laerm;58902;51.436;5.980;2023-03-07T00:26:17;50.82;47.11;55.07;;
71020;Laerm;58902;51.436;5.980;2023-03-07T00:26:27;47.58;44.67;52.62;;
71020;Laerm;58902;51.436;5.980;2023-03-07T00:26:38;49.64;45.13;54.32;;
71020;Laerm;58902;51.436;5.980;2023-03-07T00:26:48;53.00;49.74;56.19;;
71020;Laerm;58902;51.436;5.980;2023-03-07T00:26:59;53.45;50.42;57.13;;
71020;Laerm;58902;51.436;5.980;2023-03-07T00:27:09;53.19;50.33;56.88;;
71020;Laerm;58902;51.436;5.980;2023-03-07T00:27:19;52.45;48.76;56.30;;
71020;Laerm;58902;51.436;5.980;2023-03-07T00:27:30;55.44;50.85;59.41;;
71020;Laerm;58902;51.436;5.980;2023-03-07T00:27:41;54.40;49.52;58.35;;
71020;Laerm;58902;51.436;5.980;2023-03-07T00:27:51;52.45;49.14;59.30;;
71020;Laerm;58902;51.436;5.980;2023-03-07T00:28:02;50.80;47.71;54.53;;
71020;Laerm;58902;51.436;5.980;2023-03-07T00:28:12;54.28;48.08;58.17;;
71020;Laerm;58902;51.436;5.980;2023-03-07T00:28:22;55.55;52.94;60.55;;
71020;Laerm;58902;51.436;5.980;2023-03-07T00:28:33;56.18;53.06;61.33;;
71020;Laerm;58902;51.436;5.980;2023-03-07T00:28:48;56.78;52.65;63.04;;
71020;Laerm;58902;51.436;5.980;2023-03-07T00:28:58;54.82;50.55;61.28;;
71020;Laerm;58902;51.436;5.980;2023-03-07T00:29:09;53.51;49.47;56.64;;
71020;Laerm;58902;51.436;5.980;2023-03-07T00:29:19;54.36;50.18;60.15;;
71020;Laerm;58902;51.436;5.980;2023-03-07T00:29:31;54.08;49.12;60.79;;
71020;Laerm;58902;51.436;5.980;2023-03-07T00:29:42;52.45;45.32;57.05;;
71020;Laerm;58902;51.436;5.980;2023-03-07T00:29:52;52.42;45.58;62.58;;
71020;Laerm;58902;51.436;5.980;2023-03-07T00:30:03;54.55;49.70;60.15;;
71020;Laerm;58902;51.436;5.980;2023-03-07T00:30:13;57.05;53.44;63.42;;
71020;Laerm;58902;51.436;5.980;2023-03-07T00:30:24;56.73;53.50;60.65;;
71020;Laerm;58902;51.436;5.980;2023-03-07T00:30:34;56.73;52.97;66.11;;
71020;Laerm;58902;51.436;5.980;2023-03-07T00:30:46;57.89;55.15;63.84;;
71020;Laerm;58902;51.436;5.980;2023-03-07T00:31:00;57.36;53.61;61.41;;
71020;Laerm;58902;51.436;5.980;2023-03-07T00:31:11;57.45;52.96;63.39;;
71020;Laerm;58902;51.436;5.980;2023-03-07T00:31:21;57.62;53.16;62.54;;
71020;Laerm;58902;51.436;5.980;2023-03-07T00:31:32;58.07;54.63;63.06;;
71020;Laerm;58902;51.436;5.980;2023-03-07T00:31:43;56.48;51.36;60.99;;
71020;Laerm;58902;51.436;5.980;2023-03-07T00:31:53;57.75;52.54;62.74;;
71020;Laerm;58902;51.436;5.980;2023-03-07T00:32:03;56.74;50.34;62.31;;
71020;Laerm;58902;51.436;5.980;2023-03-07T00:32:14;55.83;50.20;61.31;;
71020;Laerm;58902;51.436;5.980;2023-03-07T00:32:25;56.84;50.01;64.27;;
71020;Laerm;58902;51.436;5.980;2023-03-07T00:32:36;57.44;53.22;62.30;;
71020;Laerm;58902;51.436;5.980;2023-03-07T00:32:46;55.39;48.45;60.20;;
71020;Laerm;58902;51.436;5.980;2023-03-07T00:32:57;52.37;47.93;57.21;;
71020;Laerm;58902;51.436;5.980;2023-03-07T00:33:08;56.42;48.22;64.28;;
71020;Laerm;58902;51.436;5.980;2023-03-07T00:33:18;58.50;54.47;64.89;;
71020;Laerm;58902;51.436;5.980;2023-03-07T00:33:29;57.99;54.44;63.12;;
71020;Laerm;58902;51.436;5.980;2023-03-07T00:33:39;57.40;53.47;61.79;;
71020;Laerm;58902;51.436;5.980;2023-03-07T00:33:49;57.65;52.77;63.55;;
71020;Laerm;58902;51.436;5.980;2023-03-07T00:34:00;57.93;53.85;63.24;;
71020;Laerm;58902;51.436;5.980;2023-03-07T00:34:10;58.46;53.54;64.78;;
71020;Laerm;58902;51.436;5.980;2023-03-07T00:34:21;58.39;53.16;64.06;;
71020;Laerm;58902;51.436;5.980;2023-03-07T00:34:31;57.96;53.02;63.04;;
71020;Laerm;58902;51.436;5.980;2023-03-07T00:34:42;57.71;53.12;61.89;;
71020;Laerm;58902;51.436;5.980;2023-03-07T00:34:54;57.02;51.76;60.85;;
71020;Laerm;58902;51.436;5.980;2023-03-07T00:35:05;57.69;52.95;63.67;;
71020;Laerm;58902;51.436;5.980;2023-03-07T00:35:15;58.11;54.28;61.81;;
71020;Laerm;58902;51.436;5.980;2023-03-07T00:35:26;56.77;53.43;62.41;;
71020;Laerm;58902;51.436;5.980;2023-03-07T00:35:36;54.87;52.02;58.31;;
71020;Laerm;58902;51.436;5.980;2023-03-07T00:36:07;54.93;50.37;62.12;;
71020;Laerm;58902;51.436;5.980;2023-03-07T00:36:20;55.86;52.19;61.99;;
71020;Laerm;58902;51.436;5.980;2023-03-07T00:36:31;55.48;51.77;62.03;;
71020;Laerm;58902;51.436;5.980;2023-03-07T00:36:42;54.36;50.98;59.86;;
71020;Laerm;58902;51.436;5.980;2023-03-07T00:36:52;55.47;52.40;59.12;;
71020;Laerm;58902;51.436;5.980;2023-03-07T00:37:02;55.10;51.89;59.30;;
71020;Laerm;58902;51.436;5.980;2023-03-07T00:37:13;54.07;50.69;59.35;;
71020;Laerm;58902;51.436;5.980;2023-03-07T00:37:24;55.07;51.78;65.68;;
71020;Laerm;58902;51.436;5.980;2023-03-07T00:37:34;55.62;51.46;59.76;;
71020;Laerm;58902;51.436;5.980;2023-03-07T00:37:45;56.34;53.95;60.30;;
71020;Laerm;58902;51.436;5.980;2023-03-07T00:37:55;56.73;53.37;60.64;;
71020;Laerm;58902;51.436;5.980;2023-03-07T00:38:06;58.71;55.03;63.12;;
71020;Laerm;58902;51.436;5.980;2023-03-07T00:38:16;59.03;56.35;62.20;;
71020;Laerm;58902;51.436;5.980;2023-03-07T00:38:27;58.21;55.69;62.62;;
71020;Laerm;58902;51.436;5.980;2023-03-07T00:38:37;58.86;56.42;63.73;;
71020;Laerm;58902;51.436;5.980;2023-03-07T00:38:48;58.28;54.69;62.20;;
71020;Laerm;58902;51.436;5.980;2023-03-07T00:38:58;58.56;55.48;61.54;;
71020;Laerm;58902;51.436;5.980;2023-03-07T00:39:09;56.23;53.58;59.19;;
71020;Laerm;58902;51.436;5.980;2023-03-07T00:39:20;55.23;52.16;59.98;;
71020;Laerm;58902;51.436;5.980;2023-03-07T00:39:30;53.71;49.96;58.11;;
71020;Laerm;58902;51.436;5.980;2023-03-07T00:39:41;54.43;51.33;57.89;;
71020;Laerm;58902;51.436;5.980;2023-03-07T00:39:51;53.93;50.79;57.92;;
71020;Laerm;58902;51.436;5.980;2023-03-07T00:40:02;54.22;51.19;59.42;;
71020;Laerm;58902;51.436;5.980;2023-03-07T00:40:12;54.72;51.59;59.82;;
71020;Laerm;58902;51.436;5.980;2023-03-07T00:40:24;55.21;50.42;61.94;;
71020;Laerm;58902;51.436;5.980;2023-03-07T00:40:35;55.91;52.91;61.21;;
71020;Laerm;58902;51.436;5.980;2023-03-07T00:40:45;55.01;50.63;59.08;;
71020;Laerm;58902;51.436;5.980;2023-03-07T00:41:05;54.33;50.80;60.47;;
71020;Laerm;58902;51.436;5.980;2023-03-07T00:41:17;52.51;46.78;56.62;;
71020;Laerm;58902;51.436;5.980;2023-03-07T00:41:27;52.04;47.70;58.88;;
71020;Laerm;58902;51.436;5.980;2023-03-07T00:41:38;55.79;48.90;67.86;;
71020;Laerm;58902;51.436;5.980;2023-03-07T00:41:48;51.84;47.90;57.06;;
71020;Laerm;58902;51.436;5.980;2023-03-07T00:41:59;51.89;47.34;55.51;;
71020;Laerm;58902;51.436;5.980;2023-03-07T00:42:09;52.80;48.11;59.28;;
71020;Laerm;58902;51.436;5.980;2023-03-07T00:42:19;52.53;48.37;58.87;;
71020;Laerm;58902;51.436;5.980;2023-03-07T00:42:30;52.68;48.38;59.12;;
71020;Laerm;58902;51.436;5.980;2023-03-07T00:42:40;53.16;48.75;57.86;;
71020;Laerm;58902;51.436;5.980;2023-03-07T00:42:50;55.25;50.34;62.19;;
71020;Laerm;58902;51.436;5.980;2023-03-07T00:43:01;54.93;52.21;59.77;;
71020;Laerm;58902;51.436;5.980;2023-03-07T00:43:11;57.47;52.91;62.39;;
71020;Laerm;58902;51.436;5.980;2023-03-07T00:43:21;57.65;54.29;61.09;;
71020;Laerm;58902;51.436;5.980;2023-03-07T00:43:32;58.39;55.00;65.31;;
71020;Laerm;58902;51.436;5.980;2023-03-07T00:43:43;57.64;53.61;62.88;;
71020;Laerm;58902;51.436;5.980;2023-03-07T00:43:54;57.66;52.96;63.51;;
71020;Laerm;58902;51.436;5.980;2023-03-07T00:44:05;57.35;52.95;62.83;;
71020;Laerm;58902;51.436;5.980;2023-03-07T00:44:16;58.78;54.74;66.14;;
71020;Laerm;58902;51.436;5.980;2023-03-07T00:44:26;58.29;54.58;64.73;;
71020;Laerm;58902;51.436;5.980;2023-03-07T00:44:39;57.54;53.16;64.12;;
71020;Laerm;58902;51.436;5.980;2023-03-07T00:44:49;56.60;52.61;65.05;;
71020;Laerm;58902;51.436;5.980;2023-03-07T00:44:59;56.34;52.62;64.11;;
71020;Laerm;58902;51.436;5.980;2023-03-07T00:45:10;57.31;53.65;67.30;;
71020;Laerm;58902;51.436;5.980;2023-03-07T00:45:20;57.90;53.48;65.78;;
71020;Laerm;58902;51.436;5.980;2023-03-07T00:45:30;57.04;51.85;62.20;;
71020;Laerm;58902;51.436;5.980;2023-03-07T00:45:41;55.17;52.04;59.20;;
71020;Laerm;58902;51.436;5.980;2023-03-07T00:45:51;56.61;52.17;65.48;;
71020;Laerm;58902;51.436;5.980;2023-03-07T00:46:02;57.38;53.71;61.35;;
71020;Laerm;58902;51.436;5.980;2023-03-07T00:46:13;58.06;54.32;62.77;;
71020;Laerm;58902;51.436;5.980;2023-03-07T00:46:24;58.52;55.17;63.68;;
71020;Laerm;58902;51.436;5.980;2023-03-07T00:46:35;57.24;53.09;60.95;;
71020;Laerm;58902;51.436;5.980;2023-03-07T00:46:45;56.69;51.76;64.04;;
71020;Laerm;58902;51.436;5.980;2023-03-07T00:46:55;56.57;52.67;63.49;;
71020;Laerm;58902;51.436;5.980;2023-03-07T00:47:06;57.51;52.68;64.39;;
71020;Laerm;58902;51.436;5.980;2023-03-07T00:47:16;57.37;53.16;63.33;;
71020;Laerm;58902;51.436;5.980;2023-03-07T00:47:27;56.96;53.62;62.76;;
71020;Laerm;58902;51.436;5.980;2023-03-07T00:47:37;57.73;53.02;62.87;;
71020;Laerm;58902;51.436;5.980;2023-03-07T00:47:47;57.50;53.32;62.73;;
71020;Laerm;58902;51.436;5.980;2023-03-07T00:47:58;58.49;54.04;62.57;;
71020;Laerm;58902;51.436;5.980;2023-03-07T00:48:08;57.51;53.50;60.90;;
71020;Laerm;58902;51.436;5.980;2023-03-07T00:48:19;59.44;55.12;64.04;;
71020;Laerm;58902;51.436;5.980;2023-03-07T00:48:31;59.55;55.36;63.91;;
71020;Laerm;58902;51.436;5.980;2023-03-07T00:48:42;56.39;51.04;64.58;;
71020;Laerm;58902;51.436;5.980;2023-03-07T00:48:53;56.43;51.90;63.20;;
71020;Laerm;58902;51.436;5.980;2023-03-07T00:49:03;56.16;52.06;61.74;;
71020;Laerm;58902;51.436;5.980;2023-03-07T00:49:14;55.92;49.39;62.15;;
71020;Laerm;58902;51.436;5.980;2023-03-07T00:49:24;58.60;52.37;64.48;;
71020;Laerm;58902;51.436;5.980;2023-03-07T00:49:35;58.48;54.46;66.72;;
71020;Laerm;58902;51.436;5.980;2023-03-07T00:49:45;58.08;52.80;64.70;;
71020;Laerm;58902;51.436;5.980;2023-03-07T00:49:55;58.01;52.75;65.91;;
71020;Laerm;58902;51.436;5.980;2023-03-07T00:50:06;58.81;54.44;63.59;;
71020;Laerm;58902;51.436;5.980;2023-03-07T00:50:16;58.12;51.64;66.24;;
71020;Laerm;58902;51.436;5.980;2023-03-07T00:50:27;54.52;50.52;65.19;;
71020;Laerm;58902;51.436;5.980;2023-03-07T00:50:37;54.02;49.68;60.18;;
71020;Laerm;58902;51.436;5.980;2023-03-07T00:50:48;52.97;48.62;56.86;;
71020;Laerm;58902;51.436;5.980;2023-03-07T00:50:58;51.05;46.99;59.05;;
71020;Laerm;58902;51.436;5.980;2023-03-07T00:51:10;49.18;45.50;54.17;;
71020;Laerm;58902;51.436;5.980;2023-03-07T00:51:21;46.83;43.23;53.14;;
71020;Laerm;58902;51.436;5.980;2023-03-07T00:51:32;46.78;42.95;51.83;;
71020;Laerm;58902;51.436;5.980;2023-03-07T00:51:42;45.94;42.08;50.76;;
71020;Laerm;58902;51.436;5.980;2023-03-07T00:51:53;45.00;41.96;49.76;;
71020;Laerm;58902;51.436;5.980;2023-03-07T00:52:03;46.74;42.01;52.58;;
71020;Laerm;58902;51.436;5.980;2023-03-07T00:52:13;47.46;43.74;51.72;;
71020;Laerm;58902;51.436;5.980;2023-03-07T00:52:24;46.91;43.27;52.35;;
71020;Laerm;58902;51.436;5.980;2023-03-07T00:52:34;47.46;44.03;52.93;;
71020;Laerm;58902;51.436;5.980;2023-03-07T00:52:44;49.01;43.51;55.58;;
71020;Laerm;58902;51.436;5.980;2023-03-07T00:52:55;49.98;45.78;54.67;;
71020;Laerm;58902;51.436;5.980;2023-03-07T00:53:05;51.50;48.29;56.69;;
71020;Laerm;58902;51.436;5.980;2023-03-07T00:53:15;49.22;45.80;53.72;;
71020;Laerm;58902;51.436;5.980;2023-03-07T00:53:26;48.22;43.72;56.59;;
71020;Laerm;58902;51.436;5.980;2023-03-07T00:53:37;48.20;44.67;52.42;;
71020;Laerm;58902;51.436;5.980;2023-03-07T00:53:47;46.81;42.86;51.85;;
71020;Laerm;58902;51.436;5.980;2023-03-07T00:53:58;46.19;41.96;55.51;;
71020;Laerm;58902;51.436;5.980;2023-03-07T00:54:08;46.22;42.88;50.42;;
71020;Laerm;58902;51.436;5.980;2023-03-07T00:54:19;46.65;43.39;50.26;;
71020;Laerm;58902;51.436;5.980;2023-03-07T00:54:29;46.07;41.99;51.29;;
71020;Laerm;58902;51.436;5.980;2023-03-07T00:54:39;48.81;44.86;54.90;;
71020;Laerm;58902;51.436;5.980;2023-03-07T00:54:50;48.57;44.72;53.82;;
71020;Laerm;58902;51.436;5.980;2023-03-07T00:55:00;48.07;44.07;53.93;;
71020;Laerm;58902;51.436;5.980;2023-03-07T00:55:10;47.95;43.89;57.40;;
71020;Laerm;58902;51.436;5.980;2023-03-07T00:55:21;47.81;44.18;59.56;;
71020;Laerm;58902;51.436;5.980;2023-03-07T00:55:31;49.41;45.75;54.42;;
71020;Laerm;58902;51.436;5.980;2023-03-07T00:55:42;51.01;47.19;55.87;;
71020;Laerm;58902;51.436;5.980;2023-03-07T00:55:55;50.05;45.36;56.48;;
71020;Laerm;58902;51.436;5.980;2023-03-07T00:56:07;48.83;45.07;55.70;;
71020;Laerm;58902;51.436;5.980;2023-03-07T00:56:22;49.90;44.87;57.21;;
71020;Laerm;58902;51.436;5.980;2023-03-07T00:56:33;49.17;45.35;57.36;;
71020;Laerm;58902;51.436;5.980;2023-03-07T00:56:43;48.10;44.50;52.83;;
71020;Laerm;58902;51.436;5.980;2023-03-07T00:56:53;47.91;43.72;53.62;;
71020;Laerm;58902;51.436;5.980;2023-03-07T00:57:04;47.08;43.62;51.57;;
71020;Laerm;58902;51.436;5.980;2023-03-07T00:57:14;46.29;42.88;50.99;;
71020;Laerm;58902;51.436;5.980;2023-03-07T00:57:24;48.23;42.86;57.10;;
71020;Laerm;58902;51.436;5.980;2023-03-07T00:57:35;49.98;46.44;57.32;;
71020;Laerm;58902;51.436;5.980;2023-03-07T00:57:45;49.60;46.25;53.94;;
71020;Laerm;58902;51.436;5.980;2023-03-07T00:57:55;48.02;44.43;52.40;;
71020;Laerm;58902;51.436;5.980;2023-03-07T00:58:06;49.14;44.98;53.26;;
71020;Laerm;58902;51.436;5.980;2023-03-07T00:58:16;49.86;46.09;54.86;;
71020;Laerm;58902;51.436;5.980;2023-03-07T00:58:27;48.90;45.23;52.94;;
71020;Laerm;58902;51.436;5.980;2023-03-07T00:58:38;48.97;45.55;53.21;;
71020;Laerm;58902;51.436;5.980;2023-03-07T00:58:48;49.86;46.36;57.53;;
71020;Laerm;58902;51.436;5.980;2023-03-07T00:58:59;50.56;45.91;56.91;;
71020;Laerm;58902;51.436;5.980;2023-03-07T00:59:09;51.04;47.66;55.01;;
71020;Laerm;58902;51.436;5.980;2023-03-07T00:59:20;48.15;40.80;54.09;;
71020;Laerm;58902;51.436;5.980;2023-03-07T00:59:30;47.04;42.09;54.96;;
71020;Laerm;58902;51.436;5.980;2023-03-07T00:59:40;48.19;42.45;56.69;;
71020;Laerm;58902;51.436;5.980;2023-03-07T00:59:51;50.86;44.69;56.19;;
71020;Laerm;58902;51.436;5.980;2023-03-07T01:00:01;50.11;45.67;59.13;;
71020;Laerm;58902;51.436;5.980;2023-03-07T01:00:11;50.64;45.37;59.79;;
71020;Laerm;58902;51.436;5.980;2023-03-07T01:00:22;50.63;45.57;56.98;;
71020;Laerm;58902;51.436;5.980;2023-03-07T01:00:32;49.99;44.30;56.38;;
71020;Laerm;58902;51.436;5.980;2023-03-07T01:00:43;51.10;46.10;57.09;;
71020;Laerm;58902;51.436;5.980;2023-03-07T01:00:53;49.93;44.43;56.08;;
71020;Laerm;58902;51.436;5.980;2023-03-07T01:01:05;53.16;49.51;60.32;;